Time;durP1;ratioP1;P1;durP2;ratioP2;P2;SDS_P1;SDS_P2;PMS_P1;PMS_P2;Temp;Humidity;BMP_temperature;BMP_pressure;BME280_temperature;BME280_humidity;BME280_pressure;Samples;Min_cycle;Max_cycle;Signal;HPM_P1;HPM_P2
2023/01/18 00:00:58;;;;;;;9.17;4.77;;;-1.50;99.90;;;;;;5071418;28;20052;-76
2023/01/18 00:03:24;;;;;;;7.37;4.13;;;-1.50;99.90;;;;;;5070947;28;20048;-76
2023/01/18 00:05:50;;;;;;;10.43;4.50;;;-1.50;99.90;;;;;;5071123;28;20101;-75
2023/01/18 00:08:15;;;;;;;7.57;4.80;;;-1.50;99.90;;;;;;5071295;28;20080;-75
2023/01/18 00:10:42;;;;;;;9.03;4.67;;;-1.50;99.90;;;;;;5069555;28;20418;-75
2023/01/18 00:13:08;;;;;;;8.83;4.90;;;-1.50;99.90;;;;;;5070504;28;20044;-77
2023/01/18 00:15:35;;;;;;;8.13;4.40;;;-1.60;99.90;;;;;;5070372;28;20113;-75
2023/01/18 00:18:01;;;;;;;13.43;4.77;;;-1.60;99.90;;;;;;5070039;28;20078;-75
2023/01/18 00:20:28;;;;;;;8.73;3.90;;;-1.60;99.90;;;;;;5069721;28;20052;-75
2023/01/18 00:22:54;;;;;;;8.30;4.33;;;-1.60;99.90;;;;;;5065104;28;20037;-75
2023/01/18 00:25:22;;;;;;;8.63;4.27;;;-1.60;99.90;;;;;;5070554;28;20509;-74
2023/01/18 00:27:50;;;;;;;7.33;4.40;;;-1.60;99.90;;;;;;5070671;28;20048;-75
2023/01/18 00:30:19;;;;;;;10.47;4.17;;;-1.70;99.90;;;;;;5069920;28;20044;-75
2023/01/18 00:32:52;;;;;;;7.73;4.00;;;-1.60;99.90;;;;;;5067487;28;20056;-75
2023/01/18 00:35:20;;;;;;;8.87;4.27;;;-1.60;99.90;;;;;;5067320;28;20101;-75
2023/01/18 00:37:47;;;;;;;10.97;4.83;;;-1.70;99.90;;;;;;5070427;28;20086;-75
2023/01/18 00:40:13;;;;;;;11.30;5.60;;;-1.70;99.90;;;;;;5071851;28;20120;-75
2023/01/18 00:45:24;;;;;;;8.57;5.33;;;-1.70;99.90;;;;;;5067274;28;20105;-76
2023/01/18 00:47:50;;;;;;;8.37;5.23;;;-1.60;99.90;;;;;;5066956;28;20036;-75
2023/01/18 00:50:16;;;;;;;12.47;4.93;;;-1.70;99.90;;;;;;5070575;28;20055;-76
2023/01/18 00:52:45;;;;;;;7.43;4.47;;;-1.70;99.90;;;;;;5070227;28;20482;-75
2023/01/18 00:55:11;;;;;;;13.73;5.10;;;-1.70;99.90;;;;;;5068686;28;20052;-79
2023/01/18 00:57:37;;;;;;;9.47;5.20;;;-1.70;99.90;;;;;;5068548;28;20106;-75
2023/01/18 01:00:04;;;;;;;14.47;6.67;;;-1.40;99.90;;;;;;5069705;28;20056;-78
2023/01/18 01:02:30;;;;;;;20.87;9.03;;;-1.70;99.90;;;;;;5067891;28;20050;-76
2023/01/18 01:07:40;;;;;;;15.93;7.70;;;-1.70;99.90;;;;;;5070257;28;20130;-76
2023/01/18 01:10:07;;;;;;;18.93;8.07;;;-1.60;99.90;;;;;;5069315;28;20447;-76
2023/01/18 01:26:16;;;;;;;15.77;6.97;;;-1.60;99.90;;;;;;5066092;28;20114;-75
2023/01/18 01:28:43;;;;;;;11.33;6.20;;;-1.60;99.90;;;;;;5069085;28;20502;-78
2023/01/18 01:31:12;;;;;;;10.70;5.93;;;-1.70;99.90;;;;;;5067829;28;20052;-75
2023/01/18 01:33:38;;;;;;;10.07;5.57;;;-1.70;99.90;;;;;;5064663;28;20520;-76
2023/01/18 01:36:10;;;;;;;10.33;5.70;;;-1.70;99.90;;;;;;5067998;28;20059;-76
2023/01/18 01:38:36;;;;;;;8.47;5.23;;;-1.70;99.90;;;;;;5067865;28;20478;-76
2023/01/18 01:41:05;;;;;;;8.13;4.57;;;-1.70;99.90;;;;;;5068728;28;20133;-74
2023/01/18 01:43:40;;;;;;;10.93;4.87;;;-1.70;99.90;;;;;;5068517;28;20052;-75
2023/01/18 01:46:45;;;;;;;7.20;5.03;;;-1.70;99.90;;;;;;5069577;28;20053;-74
2023/01/18 01:49:22;;;;;;;10.37;5.30;;;-1.70;99.90;;;;;;5064435;28;20567;-75
2023/01/18 01:51:54;;;;;;;11.00;5.03;;;-1.60;99.90;;;;;;5066404;28;20052;-75
2023/01/18 01:54:22;;;;;;;;;;;-1.50;99.90;;;;;;5069553;28;20044;-74
2023/01/18 01:56:52;;;;;;;10.10;4.80;;;-1.50;99.90;;;;;;5068060;28;19971;-74
2023/01/18 01:59:18;;;;;;;9.87;5.63;;;-1.50;99.90;;;;;;5050633;28;20140;-74
2023/01/18 02:01:45;;;;;;;13.83;5.00;;;-1.50;99.90;;;;;;5068018;28;20044;-75
2023/01/18 02:04:11;;;;;;;7.60;4.40;;;-1.30;99.90;;;;;;5064430;28;20452;-74
2023/01/18 02:06:39;;;;;;;10.87;5.10;;;-1.50;99.90;;;;;;5068871;28;20048;-74
2023/01/18 02:09:08;;;;;;;12.30;5.07;;;-1.50;99.90;;;;;;5068747;28;20040;-75
2023/01/18 02:11:34;;;;;;;14.07;4.83;;;-1.50;99.90;;;;;;5068357;28;20037;-74
2023/01/18 02:14:06;;;;;;;7.70;4.37;;;-1.10;99.90;;;;;;5067126;28;20431;-74
2023/01/18 02:16:38;;;;;;;;;;;-1.50;99.90;;;;;;5067637;28;20371;-75
2023/01/18 02:19:36;;;;;;;10.43;4.67;;;-1.50;99.90;;;;;;5068836;28;20273;-74
2023/01/18 02:22:32;;;;;;;8.90;4.20;;;-1.50;99.90;;;;;;5065464;28;20060;-78
2023/01/18 02:25:19;;;;;;;11.60;4.50;;;-1.60;99.90;;;;;;5067001;28;20075;-76
2023/01/18 02:28:02;;;;;;;9.40;4.73;;;-1.60;99.90;;;;;;5068744;28;20359;-75
2023/01/18 02:30:37;;;;;;;8.67;4.20;;;-1.60;99.90;;;;;;5067680;28;20546;-75
2023/01/18 02:33:09;;;;;;;7.07;4.37;;;-1.50;99.90;;;;;;5067347;28;20135;-75
2023/01/18 02:35:51;;;;;;;10.13;4.40;;;-1.50;99.90;;;;;;5068808;28;20032;-75
2023/01/18 02:38:39;;;;;;;6.60;3.77;;;-1.50;99.90;;;;;;5066657;28;20117;-75
2023/01/18 02:41:10;;;;;;;9.50;4.20;;;-1.60;99.90;;;;;;5066557;28;20040;-74
2023/01/18 02:46:33;;;;;;;7.37;3.80;;;-1.60;99.90;;;;;;5065781;28;20036;-74
2023/01/18 02:49:06;;;;;;;6.97;4.07;;;-1.70;99.90;;;;;;5068689;28;20048;-76
2023/01/18 02:51:32;;;;;;;6.63;3.73;;;-1.70;99.90;;;;;;5068421;28;20071;-76
2023/01/18 02:53:58;;;;;;;11.20;4.70;;;-1.70;99.90;;;;;;5067705;28;20624;-76
2023/01/18 02:56:27;;;;;;;11.33;4.53;;;-1.80;99.90;;;;;;5068358;28;20070;-76
2023/01/18 02:58:58;;;;;;;5.00;4.00;;;-1.80;99.90;;;;;;5066449;28;20457;-76
2023/01/18 03:01:33;;;;;;;9.00;3.70;;;-1.80;99.90;;;;;;5066312;28;20040;-74
2023/01/18 03:04:04;;;;;;;10.83;4.17;;;-1.90;99.90;;;;;;5066747;28;20548;-76
2023/01/18 03:06:32;;;;;;;7.97;4.23;;;-1.90;99.90;;;;;;5065746;28;20048;-76
2023/01/18 03:08:59;;;;;;;7.53;3.80;;;-1.90;99.90;;;;;;5066867;28;20079;-76
2023/01/18 03:11:55;;;;;;;9.47;4.53;;;-1.90;99.90;;;;;;5066900;28;20048;-75
2023/01/18 03:14:36;;;;;;;8.33;4.47;;;-1.80;99.90;;;;;;5067906;28;20053;-77
2023/01/18 03:17:07;;;;;;;8.07;4.50;;;-1.90;99.90;;;;;;5066612;28;20045;-74
2023/01/18 03:23:36;;;;;;;12.17;5.17;;;-1.90;99.90;;;;;;5066427;28;20011;-74
2023/01/18 03:25:12;;;;;;;13.30;4.90;;;-2.00;99.90;;;;;;5067595;28;20129;-74
2023/01/18 03:35:55;;;;;;;13.17;6.20;;;-2.00;99.90;;;;;;5065845;28;20182;-76
2023/01/18 03:38:21;;;;;;;9.27;6.40;;;-2.00;99.90;;;;;;5068225;28;20044;-75
2023/01/18 03:40:47;;;;;;;15.87;6.73;;;-2.00;99.90;;;;;;5065913;28;20499;-74
2023/01/18 03:43:18;;;;;;;9.53;6.33;;;-2.10;99.90;;;;;;5063870;28;20270;-75
2023/01/18 03:45:47;;;;;;;9.13;6.65;;;-2.00;99.90;;;;;;5063517;28;20099;-75
2023/01/18 03:48:13;;;;;;;9.37;6.77;;;-2.00;99.90;;;;;;5068396;28;20429;-74
2023/01/18 03:51:01;;;;;;;10.40;6.90;;;-2.00;99.90;;;;;;5063769;28;20036;-77
2023/01/18 03:53:37;;;;;;;11.20;7.07;;;-2.00;99.90;;;;;;5066148;28;20040;-78
2023/01/18 03:56:12;;;;;;;14.10;7.03;;;-1.90;99.90;;;;;;5070848;28;20056;-74
2023/01/18 03:58:39;;;;;;;9.83;6.73;;;-2.00;99.90;;;;;;5071633;28;20048;-74
2023/01/18 04:01:05;;;;;;;11.43;6.90;;;-2.00;99.90;;;;;;5071003;28;20037;-74
2023/01/18 04:03:34;;;;;;;14.93;7.07;;;-2.00;99.90;;;;;;5070628;28;20044;-74
2023/01/18 04:06:01;;;;;;;14.90;7.57;;;-2.00;99.90;;;;;;5069205;28;20052;-74
2023/01/18 04:08:27;;;;;;;14.57;7.87;;;-2.00;99.90;;;;;;5070442;28;20105;-74
2023/01/18 04:10:52;;;;;;;11.90;7.37;;;-2.00;99.90;;;;;;5070804;28;20041;-75
2023/01/18 04:13:18;;;;;;;11.60;7.20;;;-2.00;99.90;;;;;;5070803;28;20044;-76
2023/01/18 04:15:44;;;;;;;9.93;7.70;;;-2.10;99.90;;;;;;5069982;28;20052;-78
2023/01/18 04:18:10;;;;;;;10.53;7.53;;;-2.00;99.90;;;;;;5070166;28;20143;-74
2023/01/18 04:20:35;;;;;;;16.60;8.03;;;-2.00;99.90;;;;;;5070270;28;20048;-75
2023/01/18 04:23:01;;;;;;;17.13;8.63;;;-2.00;99.90;;;;;;5070733;28;20048;-74
2023/01/18 04:25:27;;;;;;;13.30;8.00;;;-1.90;99.90;;;;;;5070690;28;20048;-75
2023/01/18 04:27:53;;;;;;;13.63;7.63;;;-2.00;99.90;;;;;;5071174;28;20052;-75
2023/01/18 04:30:19;;;;;;;13.27;8.13;;;-1.90;99.90;;;;;;5069446;28;20044;-74
2023/01/18 04:32:45;;;;;;;15.33;7.90;;;-2.00;99.90;;;;;;5070490;28;20497;-77
2023/01/18 04:35:11;;;;;;;17.00;9.20;;;-2.00;99.90;;;;;;5070309;28;20047;-74
2023/01/18 04:37:37;;;;;;;14.83;9.20;;;-2.00;99.90;;;;;;5069537;28;20504;-74
2023/01/18 04:40:04;;;;;;;16.47;8.90;;;-2.00;99.90;;;;;;5069312;28;20127;-75
2023/01/18 04:42:30;;;;;;;13.73;9.07;;;-2.00;99.90;;;;;;5068860;28;20469;-75
2023/01/18 04:44:55;;;;;;;12.87;8.93;;;-2.00;99.90;;;;;;5070809;28;20054;-75
2023/01/18 04:47:21;;;;;;;13.07;8.80;;;-2.00;99.90;;;;;;5069755;28;20052;-74
2023/01/18 04:49:47;;;;;;;14.93;8.57;;;-2.00;99.90;;;;;;5070435;28;20044;-76
2023/01/18 04:52:13;;;;;;;13.57;8.70;;;-1.90;99.90;;;;;;5070018;28;20040;-74
2023/01/18 04:54:38;;;;;;;17.33;8.63;;;-1.90;99.90;;;;;;5070145;28;20068;-76
2023/01/18 04:57:04;;;;;;;14.27;8.10;;;-1.90;99.90;;;;;;5069934;28;20722;-75
2023/01/18 04:59:29;;;;;;;13.80;8.10;;;-1.60;99.90;;;;;;5070505;28;20044;-75
2023/01/18 05:01:55;;;;;;;14.77;7.90;;;-1.40;99.90;;;;;;5069071;28;20033;-78
2023/01/18 05:04:21;;;;;;;15.70;8.63;;;-1.80;99.90;;;;;;5070030;28;20049;-75
2023/01/18 05:06:48;;;;;;;13.73;8.27;;;-1.80;99.90;;;;;;5069257;28;20095;-75
2023/01/18 05:09:14;;;;;;;12.60;7.93;;;-1.90;99.90;;;;;;5069302;28;20041;-74
2023/01/18 05:11:40;;;;;;;15.23;8.17;;;-1.90;99.90;;;;;;5069717;28;20046;-78
2023/01/18 05:14:07;;;;;;;15.53;8.10;;;-1.80;99.90;;;;;;5070323;28;20051;-75
2023/01/18 05:16:34;;;;;;;13.37;8.57;;;-2.00;99.90;;;;;;5068327;28;20247;-76
2023/01/18 05:18:59;;;;;;;17.53;9.33;;;-2.00;99.90;;;;;;5069763;28;20044;-73
2023/01/18 05:21:25;;;;;;;12.60;9.20;;;-2.00;99.90;;;;;;5069585;28;20094;-77
2023/01/18 05:23:51;;;;;;;15.70;9.77;;;-2.00;99.90;;;;;;5066921;28;20544;-74
2023/01/18 05:26:19;;;;;;;29.40;20.87;;;-2.10;99.90;;;;;;5068633;28;20080;-75
2023/01/18 05:28:46;;;;;;;33.73;22.47;;;-2.10;99.90;;;;;;5068250;28;20504;-77
2023/01/18 05:31:13;;;;;;;31.73;15.27;;;-2.10;99.90;;;;;;5069444;28;20108;-74
2023/01/18 05:33:39;;;;;;;33.63;17.90;;;-2.10;99.90;;;;;;5069810;28;20040;-75
2023/01/18 05:36:05;;;;;;;23.17;13.13;;;-2.20;99.90;;;;;;5069247;28;20681;-77
2023/01/18 05:38:30;;;;;;;33.50;18.13;;;-2.20;99.90;;;;;;5069228;28;20413;-75
2023/01/18 05:40:56;;;;;;;22.47;14.20;;;-2.10;99.90;;;;;;5068506;28;20115;-75
2023/01/18 05:43:24;;;;;;;22.93;14.17;;;-2.10;99.90;;;;;;5069028;28;20082;-75
2023/01/18 05:45:50;;;;;;;22.20;11.77;;;-2.10;99.90;;;;;;5068320;28;20413;-74
2023/01/18 05:48:17;;;;;;;23.17;12.83;;;-2.10;99.90;;;;;;5069238;28;20048;-75
2023/01/18 05:50:44;;;;;;;22.50;14.53;;;-2.10;99.90;;;;;;5068143;28;20044;-74
2023/01/18 05:53:12;;;;;;;21.23;13.57;;;-1.90;99.90;;;;;;5068970;28;20509;-76
2023/01/18 05:55:38;;;;;;;21.10;12.17;;;-1.90;99.90;;;;;;5067848;28;20045;-75
2023/01/18 05:58:04;;;;;;;21.00;12.57;;;-2.00;99.90;;;;;;5066265;28;20047;-75
2023/01/18 06:00:29;;;;;;;20.57;12.27;;;-1.90;99.90;;;;;;5066660;28;20394;-75
2023/01/18 06:02:55;;;;;;;17.60;11.03;;;-1.30;99.90;;;;;;5065412;28;20039;-75
2023/01/18 06:05:23;;;;;;;19.40;12.37;;;-1.90;99.90;;;;;;5063411;28;20181;-74
2023/01/18 06:07:50;;;;;;;19.10;11.57;;;-1.80;99.90;;;;;;5065680;28;20424;-79
2023/01/18 06:10:16;;;;;;;19.67;11.87;;;-1.80;99.90;;;;;;5064877;28;20098;-79
2023/01/18 06:12:43;;;;;;;16.37;11.43;;;-1.80;99.90;;;;;;5065298;28;20681;-75
2023/01/18 06:15:10;;;;;;;21.80;12.07;;;-1.80;99.90;;;;;;5081815;28;20036;-75
2023/01/18 06:17:36;;;;;;;18.23;12.73;;;-1.80;99.90;;;;;;5064756;28;20059;-75
2023/01/18 06:20:03;;;;;;;24.27;12.87;;;-1.80;99.90;;;;;;5068634;28;20044;-75
2023/01/18 06:22:29;;;;;;;20.93;13.10;;;-1.70;99.90;;;;;;5067542;28;20033;-74
2023/01/18 06:24:54;;;;;;;22.13;13.07;;;-1.70;99.90;;;;;;5068429;28;20036;-75
2023/01/18 06:27:20;;;;;;;23.20;13.13;;;-1.40;99.90;;;;;;5068653;28;20123;-74
2023/01/18 06:29:46;;;;;;;19.70;12.30;;;-1.60;99.90;;;;;;5067982;28;20040;-77
2023/01/18 06:32:11;;;;;;;23.40;12.83;;;-1.70;99.90;;;;;;5050520;28;20102;-77
2023/01/18 06:34:37;;;;;;;21.07;12.63;;;-1.70;99.90;;;;;;5068407;28;20044;-75
2023/01/18 06:37:03;;;;;;;23.30;12.57;;;-1.70;99.90;;;;;;5068288;28;20044;-75
2023/01/18 06:39:29;;;;;;;22.83;12.70;;;-1.80;99.90;;;;;;5068586;28;20040;-75
2023/01/18 06:41:55;;;;;;;19.10;12.60;;;-1.80;99.90;;;;;;5066348;28;20520;-75
2023/01/18 06:44:20;;;;;;;21.47;13.23;;;-1.60;99.90;;;;;;5074748;28;20062;-74
2023/01/18 06:46:46;;;;;;;21.47;13.33;;;-1.80;99.90;;;;;;5067333;28;20037;-79
2023/01/18 06:49:13;;;;;;;21.13;12.83;;;-1.80;99.90;;;;;;5071906;28;20099;-74
2023/01/18 06:51:40;;;;;;;23.57;12.93;;;-1.80;99.90;;;;;;5065200;28;20040;-75
2023/01/18 06:54:06;;;;;;;24.70;14.10;;;-1.80;99.90;;;;;;5064910;28;20114;-76
2023/01/18 06:56:31;;;;;;;23.27;13.67;;;-1.80;99.90;;;;;;5067559;28;20040;-75
2023/01/18 06:58:57;;;;;;;20.30;13.07;;;-1.70;99.90;;;;;;5064048;28;20063;-74
2023/01/18 07:01:24;;;;;;;23.70;13.40;;;-1.70;99.90;;;;;;5063180;28;20550;-76
2023/01/18 07:03:50;;;;;;;21.57;14.13;;;-1.70;99.90;;;;;;5050182;28;20054;-76
2023/01/18 07:06:16;;;;;;;21.70;13.07;;;-1.80;99.90;;;;;;5054387;28;20048;-75
2023/01/18 07:08:41;;;;;;;22.80;13.80;;;-1.70;99.90;;;;;;5062189;28;20045;-80
2023/01/18 07:11:10;;;;;;;23.80;13.50;;;-1.70;99.90;;;;;;5060928;28;20048;-76
2023/01/18 07:13:39;;;;;;;23.23;15.47;;;-1.70;99.90;;;;;;5061410;28;20045;-76
2023/01/18 07:16:07;;;;;;;29.13;15.70;;;-1.70;99.90;;;;;;5045155;28;20052;-74
2023/01/18 07:18:33;;;;;;;36.00;20.07;;;-1.60;99.90;;;;;;5062050;28;20055;-76
2023/01/18 07:21:05;;;;;;;53.60;27.03;;;-1.70;99.90;;;;;;5062859;28;20060;-76
2023/01/18 07:23:37;;;;;;;50.70;27.97;;;-1.70;99.90;;;;;;5062724;28;20633;-75
2023/01/18 07:26:07;;;;;;;54.00;27.40;;;-1.70;99.90;;;;;;5063734;28;20049;-75
2023/01/18 07:28:33;;;;;;;38.07;20.13;;;-1.70;99.90;;;;;;5064551;28;20123;-76
2023/01/18 07:31:00;;;;;;;38.63;19.00;;;-1.70;99.90;;;;;;5050837;28;20059;-78
2023/01/18 07:33:26;;;;;;;43.73;21.73;;;-1.70;99.90;;;;;;5046021;28;20739;-76
2023/01/18 07:35:53;;;;;;;33.80;18.80;;;-1.70;99.90;;;;;;5058956;28;20090;-76
2023/01/18 07:38:19;;;;;;;26.70;14.20;;;-1.80;99.90;;;;;;5047511;28;20044;-76
2023/01/18 07:40:46;;;;;;;26.90;15.03;;;-1.70;99.90;;;;;;5047739;28;20553;-76
2023/01/18 07:43:13;;;;;;;23.77;14.57;;;-1.50;99.90;;;;;;5049007;28;21877;-77
2023/01/18 07:45:38;;;;;;;20.13;13.23;;;-1.60;99.90;;;;;;5050700;28;20562;-76
2023/01/18 07:48:05;;;;;;;22.47;13.13;;;-1.60;99.90;;;;;;5045900;28;20118;-77
2023/01/18 07:50:32;;;;;;;19.90;12.67;;;-1.60;99.90;;;;;;5049095;28;20063;-76
2023/01/18 07:53:03;;;;;;;20.00;12.57;;;-1.60;99.90;;;;;;5048659;28;20058;-75
2023/01/18 07:55:31;;;;;;;21.88;13.23;;;-1.60;99.90;;;;;;5047149;28;20052;-76
2023/01/18 07:57:56;;;;;;;27.40;13.70;;;-1.60;99.90;;;;;;5049472;28;20063;-79
2023/01/18 08:00:22;;;;;;;23.63;12.80;;;-1.60;99.90;;;;;;5051328;28;20048;-75
2023/01/18 08:02:51;;;;;;;23.63;12.97;;;-1.50;99.90;;;;;;5032400;28;20103;-76
2023/01/18 08:05:20;;;;;;;22.27;13.53;;;-1.50;99.90;;;;;;5048739;28;20060;-76
2023/01/18 08:07:46;;;;;;;22.67;13.33;;;-1.50;99.90;;;;;;5051355;28;20059;-77
2023/01/18 08:10:13;;;;;;;19.07;13.07;;;-1.40;99.90;;;;;;5050288;28;20052;-77
2023/01/18 08:12:40;;;;;;;20.33;11.50;;;-1.40;99.90;;;;;;5030065;28;20044;-75
2023/01/18 08:15:06;;;;;;;21.97;12.97;;;-1.30;99.90;;;;;;5049296;28;20135;-75
2023/01/18 08:17:34;;;;;;;19.60;11.87;;;-1.40;99.90;;;;;;5049193;28;21130;-78
2023/01/18 08:19:59;;;;;;;20.20;11.90;;;-1.30;99.90;;;;;;5051148;28;20147;-80
2023/01/18 08:22:25;;;;;;;19.57;12.13;;;-1.30;99.90;;;;;;5048156;28;20042;-75
2023/01/18 08:24:51;;;;;;;19.87;11.47;;;-1.20;99.90;;;;;;5051237;28;20435;-79
2023/01/18 08:27:16;;;;;;;21.13;10.67;;;-1.30;99.90;;;;;;5032049;28;20041;-78
2023/01/18 08:29:43;;;;;;;19.70;11.57;;;-0.80;99.90;;;;;;5049853;28;20060;-80
2023/01/18 08:32:09;;;;;;;17.80;11.57;;;-0.60;99.90;;;;;;5048457;28;20119;-75
2023/01/18 08:34:36;;;;;;;16.13;10.40;;;-0.80;99.90;;;;;;5051098;28;20196;-75
2023/01/18 08:37:02;;;;;;;17.80;10.10;;;-0.50;99.90;;;;;;5031248;28;20052;-78
2023/01/18 08:39:27;;;;;;;16.80;10.70;;;-0.60;99.90;;;;;;5019742;28;20065;-78
2023/01/18 08:41:53;;;;;;;16.73;10.40;;;-0.50;99.90;;;;;;5048818;28;20079;-76
2023/01/18 08:44:19;;;;;;;20.43;10.13;;;-0.40;99.90;;;;;;5049470;28;20052;-80
2023/01/18 08:46:45;;;;;;;20.23;10.43;;;-0.50;99.90;;;;;;5047247;28;20055;-78
2023/01/18 08:49:10;;;;;;;16.87;10.47;;;-0.50;99.90;;;;;;5048694;28;20072;-78
2023/01/18 08:51:36;;;;;;;19.30;10.10;;;-0.40;99.90;;;;;;5049218;28;20048;-74
2023/01/18 08:54:05;;;;;;;17.00;9.70;;;-0.10;99.90;;;;;;5048146;28;20062;-79
2023/01/18 08:56:31;;;;;;;18.87;9.70;;;-0.50;99.90;;;;;;5048692;28;20418;-80
2023/01/18 08:58:57;;;;;;;16.23;9.80;;;-0.50;99.90;;;;;;5047028;28;20067;-76
2023/01/18 09:01:23;;;;;;;17.03;10.67;;;-0.20;99.90;;;;;;5049213;28;20048;-76
2023/01/18 09:03:49;;;;;;;16.07;9.40;;;-0.10;99.90;;;;;;5048717;28;20105;-76
2023/01/18 09:06:15;;;;;;;17.37;9.43;;;-0.10;99.90;;;;;;5048612;28;21158;-76
2023/01/18 09:08:41;;;;;;;14.73;9.30;;;0.00;99.90;;;;;;5049820;28;20881;-78
2023/01/18 09:11:09;;;;;;;16.70;9.17;;;-0.10;99.90;;;;;;5049274;28;20679;-77
2023/01/18 09:13:35;;;;;;;18.20;10.03;;;-0.10;99.90;;;;;;5047463;28;20067;-79
2023/01/18 09:16:04;;;;;;;17.13;9.17;;;0.00;99.90;;;;;;5047688;28;20059;-75
2023/01/18 09:18:29;;;;;;;21.37;12.77;;;-0.10;99.90;;;;;;5046345;28;20083;-78
2023/01/18 09:20:58;;;;;;;28.17;18.60;;;0.00;99.90;;;;;;5047918;28;20131;-75
2023/01/18 09:23:24;;;;;;;17.70;11.67;;;0.00;99.90;;;;;;5046724;28;20075;-76
2023/01/18 09:26:19;;;;;;;31.07;20.97;;;0.00;99.90;;;;;;5047539;28;20056;-75
2023/01/18 09:28:49;;;;;;;28.70;17.07;;;0.00;99.90;;;;;;5048486;28;20047;-76
2023/01/18 09:31:15;;;;;;;14.35;9.45;;;0.10;99.90;;;;;;5047703;28;20231;-77
2023/01/18 09:33:41;;;;;;;17.03;8.93;;;0.10;99.90;;;;;;5045758;28;20061;-79
2023/01/18 09:36:10;;;;;;;13.70;9.40;;;0.10;99.90;;;;;;5047636;28;20049;-78
2023/01/18 09:38:37;;;;;;;19.57;11.33;;;0.10;99.90;;;;;;5047462;28;20068;-79
2023/01/18 09:41:33;;;;;;;22.57;16.50;;;0.30;99.90;;;;;;5047264;28;20602;-79
2023/01/18 09:44:06;;;;;;;16.27;11.53;;;0.20;99.90;;;;;;5047661;28;20060;-80
2023/01/18 09:46:36;;;;;;;16.47;10.40;;;1.10;99.90;;;;;;5047472;28;20048;-76
2023/01/18 09:49:05;;;;;;;16.57;9.07;;;0.30;99.90;;;;;;5048200;28;20055;-76
2023/01/18 09:52:06;;;;;;;15.63;10.27;;;0.40;99.90;;;;;;5043543;28;20501;-76
2023/01/18 09:54:51;;;;;;;15.73;10.18;;;0.60;99.90;;;;;;5033980;28;20102;-75
2023/01/18 09:57:43;;;;;;;15.13;8.60;;;1.10;99.90;;;;;;5044444;28;20713;-75
2023/01/18 10:00:30;;;;;;;14.77;8.87;;;0.90;99.90;;;;;;5044953;28;20052;-77
2023/01/18 10:03:04;;;;;;;18.50;9.40;;;1.10;99.90;;;;;;5042095;28;20048;-76
2023/01/18 10:05:39;;;;;;;14.67;8.77;;;1.20;99.90;;;;;;5044722;28;21326;-76
2023/01/18 10:08:13;;;;;;;12.97;9.50;;;1.30;99.90;;;;;;5043730;28;20067;-76
2023/01/18 10:10:50;;;;;;;14.00;9.00;;;1.20;99.90;;;;;;5045265;28;20052;-79
2023/01/18 10:13:16;;;;;;;14.67;10.77;;;1.40;99.90;;;;;;5042415;28;20071;-77
2023/01/18 10:15:42;;;;;;;13.10;9.07;;;1.50;99.90;;;;;;5043348;28;20048;-79
2023/01/18 10:18:08;;;;;;;18.77;9.73;;;2.00;99.90;;;;;;5042536;28;20474;-79
2023/01/18 10:20:56;;;;;;;13.73;10.80;;;2.40;99.90;;;;;;5045292;28;20171;-75
2023/01/18 10:23:39;;;;;;;15.63;8.63;;;2.20;99.90;;;;;;5043965;28;20052;-75
2023/01/18 10:26:16;;;;;;;15.03;9.30;;;2.10;99.90;;;;;;5044296;28;20048;-80
2023/01/18 10:29:13;;;;;;;12.10;7.53;;;2.00;99.90;;;;;;5042676;28;20056;-77
2023/01/18 10:31:54;;;;;;;11.47;8.17;;;2.30;99.90;;;;;;5041892;28;20071;-75
2023/01/18 10:34:22;;;;;;;14.60;8.60;;;2.50;99.90;;;;;;5042350;28;20081;-75
2023/01/18 10:36:52;;;;;;;15.33;9.40;;;2.60;99.90;;;;;;5042316;28;20550;-76
2023/01/18 10:39:27;;;;;;;10.02;6.88;;;2.60;99.90;;;;;;5044375;28;20147;-77
2023/01/18 10:41:58;;;;;;;13.73;10.40;;;2.50;99.90;;;;;;5042962;28;20135;-78
2023/01/18 10:44:23;;;;;;;11.00;8.57;;;2.50;99.90;;;;;;5044799;28;20057;-79
2023/01/18 10:46:55;;;;;;;13.63;9.70;;;2.90;99.90;;;;;;5043265;28;20044;-75
2023/01/18 10:49:42;;;;;;;11.73;9.43;;;3.10;99.90;;;;;;5044137;28;20513;-76
2023/01/18 10:52:27;;;;;;;13.20;8.87;;;3.30;99.90;;;;;;5041559;28;20055;-77
2023/01/18 10:55:00;;;;;;;14.63;11.37;;;3.30;99.90;;;;;;5044269;28;20087;-77
2023/01/18 10:57:42;;;;;;;13.73;8.63;;;3.30;99.90;;;;;;5025793;28;20287;-77
2023/01/18 11:00:20;;;;;;;14.13;8.73;;;3.20;99.90;;;;;;5043241;28;20118;-76
2023/01/18 11:02:48;;;;;;;13.07;11.20;;;3.40;99.90;;;;;;5044830;28;20044;-76
2023/01/18 11:05:16;;;;;;;10.87;9.50;;;3.60;99.90;;;;;;5033138;28;20091;-76
2023/01/18 11:07:42;;;;;;;11.47;8.40;;;3.40;99.90;;;;;;5051422;28;20287;-78
2023/01/18 11:10:24;;;;;;;11.47;8.10;;;3.40;99.90;;;;;;5050669;28;20056;-78
2023/01/18 11:12:51;;;;;;;42.17;39.10;;;3.50;99.90;;;;;;5048932;28;20086;-78
2023/01/18 11:15:17;;;;;;;11.77;8.83;;;4.30;99.90;;;;;;5050510;28;20044;-77
2023/01/18 11:17:59;;;;;;;12.13;9.63;;;4.10;99.90;;;;;;5048663;28;20052;-78
2023/01/18 11:20:36;;;;;;;10.95;9.13;;;4.40;99.90;;;;;;5050554;28;20110;-76
2023/01/18 11:23:13;;;;;;;11.20;7.53;;;4.80;99.90;;;;;;5049331;28;20052;-78
2023/01/18 11:25:51;;;;;;;15.83;13.83;;;4.60;99.90;;;;;;5049771;28;20052;-75
2023/01/18 11:28:20;;;;;;;11.27;7.97;;;4.00;99.90;;;;;;5051994;28;20515;-78
2023/01/18 11:30:54;;;;;;;11.97;9.20;;;4.20;99.90;;;;;;5033129;28;20056;-76
2023/01/18 11:33:22;;;;;;;11.83;9.87;;;4.40;99.90;;;;;;5050350;28;20133;-76
2023/01/18 11:35:59;;;;;;;8.43;7.43;;;4.90;99.90;;;;;;5051006;28;20133;-76
2023/01/18 11:38:31;;;;;;;10.73;6.60;;;4.80;99.90;;;;;;5050361;28;20410;-76
2023/01/18 11:41:03;;;;;;;11.53;10.23;;;5.00;99.90;;;;;;5047141;28;20084;-76
2023/01/18 11:43:31;;;;;;;21.55;19.95;;;5.00;99.90;;;;;;5049252;28;20571;-76
2023/01/18 11:46:26;;;;;;;11.97;9.80;;;4.70;99.90;;;;;;5047889;28;20063;-78
2023/01/18 11:49:17;;;;;;;13.07;11.87;;;4.60;99.90;;;;;;5039719;28;20702;-76
2023/01/18 11:51:50;;;;;;;10.38;7.55;;;4.70;99.90;;;;;;5047777;28;20060;-78
2023/01/18 11:54:52;;;;;;;13.13;9.73;;;4.90;99.90;;;;;;5049502;28;20063;-76
2023/01/18 11:57:18;;;;;;;12.50;8.75;;;4.90;99.90;;;;;;5017605;28;20083;-75
2023/01/18 11:59:45;;;;;;;13.07;9.83;;;4.90;99.90;;;;;;5051130;28;21124;-75
2023/01/18 12:02:30;;;;;;;16.77;14.47;;;4.70;99.90;;;;;;5047782;28;20045;-78
2023/01/18 12:05:25;;;;;;;29.90;27.57;;;4.60;99.90;;;;;;5050708;28;20102;-75
2023/01/18 12:07:59;;;;;;;14.50;13.07;;;4.10;99.90;;;;;;5049247;28;20048;-75
2023/01/18 12:10:31;;;;;;;14.60;13.30;;;3.90;99.90;;;;;;5050828;28;20113;-75
2023/01/18 12:13:15;;;;;;;38.03;35.63;;;3.70;99.90;;;;;;5049580;28;20063;-75
2023/01/18 12:16:01;;;;;;;19.83;18.03;;;3.60;99.90;;;;;;5048426;28;20129;-77
2023/01/18 12:18:48;;;;;;;13.33;9.53;;;3.70;99.90;;;;;;5047207;28;20623;-74
2023/01/18 12:21:31;;;;;;;20.20;18.47;;;4.00;99.90;;;;;;5046949;28;20044;-75
2023/01/18 12:24:12;;;;;;;11.53;9.83;;;3.90;99.90;;;;;;5047898;28;20568;-78
2023/01/18 12:26:58;;;;;;;10.93;9.60;;;4.10;99.90;;;;;;5048304;28;20052;-77
2023/01/18 12:29:42;;;;;;;12.87;9.30;;;4.00;99.90;;;;;;5049134;28;20040;-75
2023/01/18 12:32:42;;;;;;;13.20;9.30;;;4.00;99.90;;;;;;5047085;28;20044;-78
2023/01/18 12:35:39;;;;;;;8.90;7.93;;;4.10;99.90;;;;;;5046841;28;20056;-77
2023/01/18 12:38:24;;;;;;;12.77;10.63;;;4.00;99.90;;;;;;5048332;28;20159;-77
2023/01/18 12:41:27;;;;;;;12.97;7.27;;;4.00;99.90;;;;;;5030026;28;20055;-76
2023/01/18 12:44:20;;;;;;;12.70;9.63;;;4.20;99.90;;;;;;5047023;28;20080;-75
2023/01/18 12:47:10;;;;;;;14.40;9.23;;;4.20;99.90;;;;;;5045721;28;20589;-75
2023/01/18 12:49:41;;;;;;;15.97;10.53;;;4.40;99.90;;;;;;5048829;28;20098;-76
2023/01/18 12:52:11;;;;;;;9.88;8.60;;;4.40;99.90;;;;;;5047951;28;20062;-77
2023/01/18 12:54:47;;;;;;;11.00;8.63;;;4.50;99.90;;;;;;5047384;28;20139;-75
2023/01/18 12:57:15;;;;;;;12.80;9.83;;;4.20;99.90;;;;;;5047156;28;20535;-75
2023/01/18 13:00:04;;;;;;;15.37;12.23;;;3.80;99.90;;;;;;5049336;28;20401;-76
2023/01/18 13:02:37;;;;;;;10.00;8.67;;;3.60;99.90;;;;;;5047579;28;20049;-74
2023/01/18 13:05:21;;;;;;;12.30;8.47;;;3.40;99.90;;;;;;5049543;28;20057;-77
2023/01/18 13:08:26;;;;;;;11.53;7.43;;;3.40;99.90;;;;;;5047334;28;20060;-78
2023/01/18 13:11:02;;;;;;;10.37;7.50;;;3.40;99.90;;;;;;5048675;28;20510;-77
2023/01/18 13:13:28;;;;;;;13.57;11.93;;;3.30;99.90;;;;;;5049273;28;20143;-75
2023/01/18 13:16:15;;;;;;;14.60;8.53;;;3.30;99.90;;;;;;5049383;28;20138;-76
2023/01/18 13:18:43;;;;;;;10.03;8.77;;;3.30;99.90;;;;;;5047910;28;20185;-75
2023/01/18 13:21:35;;;;;;;10.43;7.93;;;3.40;99.90;;;;;;5048380;28;20249;-78
2023/01/18 13:24:35;;;;;;;9.20;6.97;;;3.40;99.90;;;;;;5048385;28;20258;-76
2023/01/18 13:27:11;;;;;;;13.63;6.83;;;3.30;99.90;;;;;;5048417;28;20638;-74
2023/01/18 13:29:38;;;;;;;16.57;14.80;;;3.30;99.90;;;;;;5047955;28;20061;-74
2023/01/18 13:32:44;;;;;;;11.80;6.53;;;3.30;99.90;;;;;;5047228;28;20048;-76